Aeroporto :
LOGIN :

Iscrizione | Disclaimer

   EN    FR    IT 

 










Sommario :    VFR   VFR Marginale   IFR   IFR Intensivo   IFR Molto Intensivo
Visibilità : 
Base nubi : 
>= 8 km
>= 3000ft
5 / 8 km
1000 / 3000 ft
1500m / 5 km
500 / 1000 ft
800 / 1500m
200 / 500 ft
< 800m
< 200 ft
Simboli :   Temporali  Nebbia  Neve Forte  Precipitazioni Forti  Vento > 20 kt
SIGMETs :   Varie  Temporali  Ghiacco  Turbolenza  Onda orograficha  Ceneri Vulcaniche






- Altitudine del aeroporto : 1161 ft
- Codice IATA : RJL


LELO - Logroño-Agoncillo

ULTIMO METAR :
  • 011500Z 09010KT 050V120 9999 FEW012 BKN035 11/08 Q1012

METARs OBSOLETI :
  • 011430Z 08009KT 050V120 9999 FEW010 BKN022 11/08 Q1013
  • 011400Z 09008KT 050V120 9999 SCT015 BKN037 11/09 Q1013
  • 011330Z 09008KT 060V120 9999 SCT010 BKN034 11/09 Q1013
  • 011300Z 07007KT 030V100 9999 -RA SCT010 BKN034 10/09 Q1013
  • 011230Z 08009KT 9999 SCT012 BKN034 10/08 Q1013

TAF TAF LELO
Valido dal 01 a 15 ore il 02 a 00 ore UTC


011400Z 0115/0124 09010KT 9999 SCT014 BKN030
TEMPO 0115/0121 4000 RADZ SHRA BKN010 SCT020TCU



MetMap, La meteo Aeronautica in un colpo d'occhio ! - Copyright ORBIFLY Dicembre 2007 - Disclaimer

ORBIFLY MET'MAP TEAM :

Programmazione e sviluppo : Alexandra Zaïnal
Concezione : Baudouin d'Aumeries
Aiuto per la programmazione : Marc-Olivier Méhu
Supporto tecnico e logistico : Manuel Goepfert
Aiuto per la traduzione : Arnaldo La Scala

Contatto : metmap@orbifly.com




FONTI E CREDITI :

   NOAA